Time;durP1;ratioP1;P1;durP2;ratioP2;P2;SDS_P1;SDS_P2;PMS_P1;PMS_P2;Temp;Humidity;BMP_temperature;BMP_pressure;BME280_temperature;BME280_humidity;BME280_pressure;Samples;Min_cycle;Max_cycle;Signal;HPM_P1;HPM_P2
2022/04/02 00:02:25;;;;;;;;;;;1.70;99.90;;;;;;5049467;28;20358;-61
2022/04/02 00:04:54;;;;;;;;;;;1.70;99.90;;;;;;5047499;28;19976;-61
2022/04/02 00:07:23;;;;;;;;;;;1.70;99.90;;;;;;5045779;28;20032;-62
2022/04/02 00:09:50;;;;;;;;;;;1.70;99.90;;;;;;5050414;28;19983;-62
2022/04/02 00:12:18;;;;;;;;;;;1.70;99.90;;;;;;5049037;28;20039;-61
2022/04/02 00:14:47;;;;;;;;;;;1.70;99.90;;;;;;5049224;28;19929;-61
2022/04/02 00:17:16;;;;;;;;;;;1.80;99.90;;;;;;5049099;28;19933;-61
2022/04/02 00:19:44;;;;;;;;;;;1.70;99.90;;;;;;5051056;28;19939;-61
2022/04/02 00:22:13;;;;;;;;;;;1.70;99.90;;;;;;5049584;28;20074;-61
2022/04/02 00:24:41;;;;;;;;;;;1.70;99.90;;;;;;5049435;28;19978;-61
2022/04/02 00:27:09;;;;;;;;;;;1.70;99.90;;;;;;5050737;28;19929;-61
2022/04/02 00:29:38;;;;;;;;;;;1.70;99.90;;;;;;5050581;28;20027;-61
2022/04/02 00:32:06;;;;;;;;;;;1.70;99.90;;;;;;5049656;28;19990;-61
2022/04/02 00:34:34;;;;;;;;;;;1.70;99.90;;;;;;5051915;28;19932;-61
2022/04/02 00:37:01;;;;;;;;;;;1.70;99.90;;;;;;5053118;28;19974;-61
2022/04/02 00:39:31;;;;;;;;;;;1.80;99.90;;;;;;5055202;28;19933;-61
2022/04/02 00:41:58;;;;;;;;;;;1.70;99.90;;;;;;5052430;28;19939;-61
2022/04/02 00:44:26;;;;;;;;;;;1.70;99.90;;;;;;5054869;28;20464;-61
2022/04/02 00:46:54;;;;;;;;;;;1.70;99.90;;;;;;5052178;28;19979;-61
2022/04/02 00:49:22;;;;;;;;;;;1.70;99.90;;;;;;5054108;28;20055;-61
2022/04/02 00:51:50;;;;;;;;;;;1.70;99.90;;;;;;5054128;28;19947;-61
2022/04/02 00:54:19;;;;;;;;;;;1.70;99.90;;;;;;5053627;28;19960;-61
2022/04/02 00:56:48;;;;;;;;;;;1.70;99.90;;;;;;5053528;28;20390;-61
2022/04/02 00:59:16;;;;;;;;;;;1.70;99.90;;;;;;5053532;28;19971;-61
2022/04/02 01:01:44;;;;;;;;;;;1.70;99.90;;;;;;5052559;28;19933;-62
2022/04/02 01:04:12;;;;;;;;;;;1.60;99.90;;;;;;5048523;28;20545;-61
2022/04/02 01:06:41;;;;;;;;;;;1.60;99.90;;;;;;5054282;28;19933;-61
2022/04/02 01:09:10;;;;;;;;;;;1.60;99.90;;;;;;5054048;28;19952;-61
2022/04/02 01:11:38;;;;;;;;;;;1.60;99.90;;;;;;5054210;28;20397;-61
2022/04/02 01:14:08;;;;;;;;;;;1.60;99.90;;;;;;5052310;28;20360;-60
2022/04/02 01:16:36;;;;;;;;;;;1.60;99.90;;;;;;5054402;28;20011;-61
2022/04/02 01:19:04;;;;;;;;;;;1.60;99.90;;;;;;5052659;28;19925;-61
2022/04/02 01:21:32;;;;;;;;;;;1.60;99.90;;;;;;5054077;28;19964;-61
2022/04/02 01:24:02;;;;;;;;;;;1.50;99.90;;;;;;5052682;28;20388;-61
2022/04/02 01:26:30;;;;;;;;;;;1.50;99.90;;;;;;5054053;28;19935;-61
2022/04/02 01:28:59;;;;;;;;;;;1.50;99.90;;;;;;5052798;28;20035;-61
2022/04/02 01:31:27;;;;;;;;;;;1.50;99.90;;;;;;5053968;28;20409;-61
2022/04/02 01:33:55;;;;;;;;;;;1.50;99.90;;;;;;5051410;28;19940;-61
2022/04/02 01:36:23;;;;;;;;;;;1.40;99.90;;;;;;5053754;28;20011;-61
2022/04/02 01:38:50;;;;;;;;;;;1.40;99.90;;;;;;5052583;28;19932;-61
2022/04/02 01:41:20;;;;;;;;;;;1.40;99.90;;;;;;5053789;28;19982;-61
2022/04/02 01:43:48;;;;;;;;;;;1.40;99.90;;;;;;5052032;28;19924;-61
2022/04/02 01:46:16;;;;;;;;;;;1.40;99.90;;;;;;5053665;28;20112;-61
2022/04/02 01:48:45;;;;;;;;;;;1.40;99.90;;;;;;5053088;28;19978;-61
2022/04/02 01:51:13;;;;;;;;;;;1.40;99.90;;;;;;5053561;28;20374;-61
2022/04/02 01:53:41;;;;;;;;;;;1.40;99.90;;;;;;5051638;28;19999;-61
2022/04/02 01:56:09;;;;;;;;;;;1.40;99.90;;;;;;5053515;28;19928;-61
2022/04/02 01:58:38;;;;;;;;;;;1.30;99.90;;;;;;5052504;28;19978;-61
2022/04/02 02:01:06;;;;;;;;;;;1.40;99.90;;;;;;5053443;28;19971;-61
2022/04/02 02:03:34;;;;;;;;;;;1.40;99.90;;;;;;5050853;28;20424;-61
2022/04/02 02:06:02;;;;;;;;;;;1.40;99.90;;;;;;5053148;28;19925;-60
2022/04/02 02:08:31;;;;;;;;;;;1.40;99.90;;;;;;5051639;28;19924;-61
2022/04/02 02:10:59;;;;;;;;;;;1.40;99.90;;;;;;5053253;28;19948;-61
2022/04/02 02:13:26;;;;;;;;;;;1.40;99.90;;;;;;5051618;28;19956;-61
2022/04/02 02:15:55;;;;;;;;;;;1.40;99.90;;;;;;5053377;28;19975;-61
2022/04/02 02:18:23;;;;;;;;;;;1.40;99.90;;;;;;5051353;28;20031;-62
2022/04/02 02:20:51;;;;;;;;;;;1.40;99.90;;;;;;5052676;28;19964;-62
2022/04/02 02:23:18;;;;;;;;;;;1.40;99.90;;;;;;5048599;28;20314;-62
2022/04/02 02:25:46;;;;;;;;;;;1.40;99.90;;;;;;5053238;28;19928;-62
2022/04/02 02:28:16;;;;;;;;;;;1.30;99.90;;;;;;5051832;28;19972;-61
2022/04/02 02:30:44;;;;;;;;;;;1.40;99.90;;;;;;5053115;28;19960;-61
2022/04/02 02:36:10;;;;;;;;;;;1.30;99.90;;;;;;5009577;28;19983;-62
2022/04/02 02:38:37;;;;;;;;;;;1.20;99.90;;;;;;5042784;28;19928;-61
2022/04/02 02:41:07;;;;;;;;;;;1.20;99.90;;;;;;5051840;28;19932;-60
2022/04/02 02:43:34;;;;;;;;;;;1.20;99.90;;;;;;5050950;28;20032;-62
2022/04/02 02:46:02;;;;;;;;;;;1.20;99.90;;;;;;5052000;28;19966;-61
2022/04/02 02:48:31;;;;;;;;;;;1.20;99.90;;;;;;5052500;28;20394;-62
2022/04/02 02:50:59;;;;;;;;;;;1.20;99.90;;;;;;5051210;28;20522;-61
2022/04/02 02:53:27;;;;;;;;;;;1.20;99.90;;;;;;5049982;28;19971;-61
2022/04/02 02:55:54;;;;;;;;;;;1.20;99.90;;;;;;5050257;28;19968;-61
2022/04/02 02:58:22;;;;;;;;;;;1.20;99.90;;;;;;5046091;28;19931;-61
2022/04/02 03:00:50;;;;;;;;;;;1.10;99.90;;;;;;5048809;28;19932;-61
2022/04/02 03:03:18;;;;;;;;;;;1.10;99.90;;;;;;5045466;28;20017;-62
2022/04/02 03:05:47;;;;;;;;;;;1.10;99.90;;;;;;5050978;28;20022;-61
2022/04/02 03:08:16;;;;;;;;;;;1.10;99.90;;;;;;5045733;28;20002;-62
2022/04/02 03:10:44;;;;;;;;;;;1.00;99.90;;;;;;5043078;28;20368;-61
2022/04/02 03:13:12;;;;;;;;;;;1.00;99.90;;;;;;5043466;28;20031;-61
2022/04/02 03:15:40;;;;;;;;;;;1.00;99.90;;;;;;5048081;28;19925;-61
2022/04/02 03:18:09;;;;;;;;;;;1.00;99.90;;;;;;5045484;28;19974;-61
2022/04/02 03:20:37;;;;;;;;;;;0.90;99.90;;;;;;5044494;28;20353;-61
2022/04/02 03:23:08;;;;;;;;;;;0.90;99.90;;;;;;5047798;28;20312;-61
2022/04/02 03:25:37;;;;;;;;;;;0.90;99.90;;;;;;5046248;28;19931;-61
2022/04/02 03:28:05;;;;;;;;;;;0.90;99.90;;;;;;5051948;28;20393;-61
2022/04/02 03:30:33;;;;;;;;;;;1.00;99.90;;;;;;5049997;28;19994;-61
2022/04/02 03:33:00;;;;;;;;;;;1.00;99.90;;;;;;5050792;28;20340;-61
2022/04/02 03:35:28;;;;;;;;;;;1.00;99.90;;;;;;5050584;28;19939;-61
2022/04/02 03:37:56;;;;;;;;;;;0.90;99.90;;;;;;5047727;28;19924;-62
2022/04/02 03:40:26;;;;;;;;;;;1.00;99.90;;;;;;5045513;28;19956;-61
2022/04/02 03:42:54;;;;;;;;;;;0.90;99.90;;;;;;5049504;28;19932;-61
2022/04/02 03:45:22;;;;;;;;;;;0.90;99.90;;;;;;5050641;28;19925;-61
2022/04/02 03:47:50;;;;;;;;;;;0.90;99.90;;;;;;5051767;28;19924;-61
2022/04/02 03:50:18;;;;;;;;;;;0.90;99.90;;;;;;5049503;28;19925;-61
2022/04/02 03:52:46;;;;;;;;;;;0.90;99.90;;;;;;5048002;28;20248;-61
2022/04/02 03:55:14;;;;;;;;;;;0.90;99.90;;;;;;5044125;28;19925;-62
2022/04/02 03:57:47;;;;;;;;;;;0.90;99.90;;;;;;5048504;28;19925;-62
2022/04/02 04:00:15;;;;;;;;;;;0.90;99.90;;;;;;5044260;28;19929;-61
2022/04/02 04:02:43;;;;;;;;;;;0.80;99.90;;;;;;5050495;28;20003;-62
2022/04/02 04:05:11;;;;;;;;;;;0.80;99.90;;;;;;5049903;28;19929;-61
2022/04/02 04:07:39;;;;;;;;;;;0.80;99.90;;;;;;5051095;28;19960;-61
2022/04/02 04:10:07;;;;;;;;;;;0.80;99.90;;;;;;5049790;28;20011;-62
2022/04/02 04:12:35;;;;;;;;;;;0.80;99.90;;;;;;5050097;28;19925;-61
2022/04/02 04:15:04;;;;;;;;;;;0.80;99.90;;;;;;5050018;28;19933;-62
2022/04/02 04:17:32;;;;;;;;;;;0.80;99.90;;;;;;5051044;28;19990;-61
2022/04/02 04:20:00;;;;;;;;;;;0.80;99.90;;;;;;5050207;28;20417;-61
2022/04/02 04:22:27;;;;;;;;;;;0.80;99.90;;;;;;5050176;28;20473;-62
2022/04/02 04:24:55;;;;;;;;;;;0.80;99.90;;;;;;5049761;28;19995;-62
2022/04/02 04:27:23;;;;;;;;;;;0.80;99.90;;;;;;5050457;28;19956;-61
2022/04/02 04:29:50;;;;;;;;;;;0.80;99.90;;;;;;5049332;28;19964;-62
2022/04/02 04:32:19;;;;;;;;;;;0.70;99.90;;;;;;5043936;28;20027;-61
2022/04/02 04:34:47;;;;;;;;;;;0.70;99.90;;;;;;5046674;28;19929;-61
2022/04/02 04:37:15;;;;;;;;;;;0.70;99.90;;;;;;5050672;28;19971;-61
2022/04/02 04:39:43;;;;;;;;;;;0.70;99.90;;;;;;5049591;28;20448;-61
2022/04/02 04:42:10;;;;;;;;;;;0.80;99.90;;;;;;5048554;28;20353;-61
2022/04/02 04:44:38;;;;;;;;;;;0.60;99.90;;;;;;5049783;28;19925;-63
2022/04/02 04:47:06;;;;;;;;;;;0.60;99.90;;;;;;5050343;28;19960;-63
2022/04/02 04:49:35;;;;;;;;;;;0.60;99.90;;;;;;5051179;28;19964;-62
2022/04/02 04:52:03;;;;;;;;;;;0.60;99.90;;;;;;5047986;28;19964;-62
2022/04/02 04:54:31;;;;;;;;;;;0.60;99.90;;;;;;5050783;28;19971;-62
2022/04/02 04:56:59;;;;;;;;;;;0.50;99.90;;;;;;5049837;28;19933;-63
2022/04/02 04:59:27;;;;;;;;;;;0.50;99.90;;;;;;5050508;28;19929;-63
2022/04/02 05:01:54;;;;;;;;;;;0.50;99.90;;;;;;5047653;28;19952;-63
2022/04/02 05:04:22;;;;;;;;;;;0.50;99.90;;;;;;5042080;28;20074;-63
2022/04/02 05:06:53;;;;;;;;;;;0.60;99.90;;;;;;5047424;28;20051;-63
2022/04/02 05:09:21;;;;;;;;;;;0.50;99.90;;;;;;5048931;28;20641;-64
2022/04/02 05:11:49;;;;;;;;;;;0.50;99.90;;;;;;5046955;28;19932;-64
2022/04/02 05:14:16;;;;;;;;;;;0.50;99.90;;;;;;5049323;28;19956;-63
2022/04/02 05:16:44;;;;;;;;;;;0.50;99.90;;;;;;5048913;28;19983;-65
2022/04/02 05:19:12;;;;;;;;;;;0.50;99.90;;;;;;5050566;28;20023;-63
2022/04/02 05:21:40;;;;;;;;;;;0.50;99.90;;;;;;5053759;28;19933;-63
2022/04/02 05:24:09;;;;;;;;;;;0.60;99.90;;;;;;5053301;28;19932;-63
2022/04/02 05:26:37;;;;;;;;;;;0.60;99.90;;;;;;5052600;28;19939;-63
2022/04/02 05:29:05;;;;;;;;;;;0.60;99.90;;;;;;5053291;28;19936;-64
2022/04/02 05:31:38;;;;;;;;;;;0.60;99.90;;;;;;5053159;28;19939;-63
2022/04/02 05:34:05;;;;;;;;;;;0.70;99.90;;;;;;5050333;28;19938;-62
2022/04/02 05:36:33;;;;;;;;;;;0.60;99.90;;;;;;5053365;28;21071;-63
2022/04/02 05:39:01;;;;;;;;;;;0.60;99.90;;;;;;5050924;28;20051;-63
2022/04/02 05:41:30;;;;;;;;;;;0.50;99.90;;;;;;5053818;28;19968;-63
2022/04/02 05:43:58;;;;;;;;;;;0.50;99.90;;;;;;5053010;28;19943;-63
2022/04/02 05:46:26;;;;;;;;;;;0.50;99.90;;;;;;5052211;28;19997;-63
2022/04/02 05:48:53;;;;;;;;;;;0.50;99.90;;;;;;5051330;28;20488;-63
2022/04/02 05:51:22;;;;;;;;;;;0.50;99.90;;;;;;5051303;28;20028;-63
2022/04/02 05:53:49;;;;;;;;;;;0.60;99.90;;;;;;5052707;28;20063;-63
2022/04/02 05:56:18;;;;;;;;;;;0.50;99.90;;;;;;5050179;28;20022;-63
2022/04/02 05:58:47;;;;;;;;;;;0.50;99.90;;;;;;5052444;28;20022;-63
2022/04/02 06:01:14;;;;;;;;;;;0.50;99.90;;;;;;5050731;28;19959;-64
2022/04/02 06:03:42;;;;;;;;;;;0.60;99.90;;;;;;5051916;28;20008;-62
2022/04/02 06:06:10;;;;;;;;;;;0.60;99.90;;;;;;5049586;28;20025;-63
2022/04/02 06:08:38;;;;;;;;;;;0.50;99.90;;;;;;5051610;28;19964;-63
2022/04/02 06:11:06;;;;;;;;;;;0.60;99.90;;;;;;5050966;28;19933;-62
2022/04/02 06:13:34;;;;;;;;;;;0.50;99.90;;;;;;5049956;28;19960;-64
2022/04/02 06:16:03;;;;;;;;;;;0.50;99.90;;;;;;5048047;28;20031;-64
2022/04/02 06:18:31;;;;;;;;;;;0.50;99.90;;;;;;5049979;28;19939;-62
2022/04/02 06:21:02;;;;;;;;;;;0.50;99.90;;;;;;5053607;28;19982;-63
2022/04/02 06:23:32;;;;;;;;;;;0.50;99.90;;;;;;5051320;28;19940;-63
2022/04/02 06:26:00;;;;;;;;;;;0.50;99.90;;;;;;5051216;28;20055;-63
2022/04/02 06:28:28;;;;;;;;;;;0.50;99.90;;;;;;5048945;28;19933;-62
2022/04/02 06:30:57;;;;;;;;;;;0.50;99.90;;;;;;5052889;28;20039;-63
2022/04/02 06:33:26;;;;;;;;;;;0.80;99.90;;;;;;5054797;28;20023;-62
2022/04/02 06:35:53;;;;;;;;;;;0.50;99.90;;;;;;5052731;28;19963;-63
2022/04/02 06:38:21;;;;;;;;;;;0.60;99.90;;;;;;5054266;28;19975;-62
2022/04/02 06:40:49;;;;;;;;;;;0.60;99.90;;;;;;5056713;28;19928;-61
2022/04/02 06:43:16;;;;;;;;;;;0.60;99.90;;;;;;5052012;28;19925;-62
2022/04/02 06:45:45;;;;;;;;;;;0.70;99.90;;;;;;5052656;28;19969;-62
2022/04/02 06:48:13;;;;;;;;;;;0.70;99.90;;;;;;5043336;28;19939;-62
2022/04/02 06:50:43;;;;;;;;;;;0.70;99.90;;;;;;5051781;28;21369;-62
2022/04/02 06:53:11;;;;;;;;;;;0.80;99.90;;;;;;5052242;28;20674;-63
2022/04/02 06:55:40;;;;;;;;;;;0.80;99.90;;;;;;5054008;28;19940;-65
2022/04/02 06:58:08;;;;;;;;;;;0.80;99.90;;;;;;5051044;28;20031;-62
2022/04/02 07:00:36;;;;;;;;;;;0.90;99.90;;;;;;5052216;28;20452;-62
2022/04/02 07:03:04;;;;;;;;;;;0.90;99.90;;;;;;5050725;28;19959;-63
2022/04/02 07:05:32;;;;;;;;;;;0.90;99.90;;;;;;5047968;28;20398;-63
2022/04/02 07:08:01;;;;;;;;;;;0.90;99.90;;;;;;5049713;28;20408;-63
2022/04/02 07:10:29;;;;;;;;;;;0.90;99.90;;;;;;5051994;28;20031;-63
2022/04/02 07:12:56;;;;;;;;;;;0.90;99.90;;;;;;5051522;28;19928;-63
2022/04/02 07:15:24;;;;;;;;;;;1.00;99.90;;;;;;5052521;28;19963;-64
2022/04/02 07:17:52;;;;;;;;;;;1.00;99.90;;;;;;5051950;28;19972;-64
2022/04/02 07:20:20;;;;;;;;;;;0.90;99.90;;;;;;5051815;28;19928;-64
2022/04/02 07:22:48;;;;;;;;;;;1.00;99.90;;;;;;5051406;28;20485;-64
2022/04/02 07:25:19;;;;;;;;;;;1.00;99.90;;;;;;5051874;28;20401;-63
2022/04/02 07:27:47;;;;;;;;;;;1.10;99.90;;;;;;5052013;28;20067;-64
2022/04/02 07:30:15;;;;;;;;;;;1.10;99.90;;;;;;5051839;28;19925;-63
2022/04/02 07:32:43;;;;;;;;;;;1.10;99.90;;;;;;5050984;28;19979;-63
2022/04/02 07:35:11;;;;;;;;;;;1.20;99.90;;;;;;5051832;28;19929;-63
2022/04/02 07:37:45;;;;;;;;;;;1.20;99.90;;;;;;5051277;28;19977;-63
2022/04/02 07:40:16;;;;;;;;;;;1.30;99.90;;;;;;5051964;28;20002;-63
2022/04/02 07:43:01;;;;;;;;;;;1.30;99.90;;;;;;5050741;28;19982;-63
2022/04/02 07:45:32;;;;;;;;;;;1.40;99.90;;;;;;5051735;28;19929;-63
2022/04/02 07:48:02;;;;;;;;;;;1.40;99.90;;;;;;5045085;28;19925;-63
2022/04/02 07:50:30;;;;;;;;;;;1.40;99.90;;;;;;5045279;28;19963;-63
2022/04/02 07:52:58;;;;;;;;;;;1.50;99.90;;;;;;5050831;28;19964;-63
2022/04/02 07:55:26;;;;;;;;;;;1.50;99.90;;;;;;5045243;28;19964;-63
2022/04/02 07:57:58;;;;;;;;;;;1.60;99.90;;;;;;5045079;28;19925;-64
2022/04/02 08:00:27;;;;;;;;;;;1.60;99.90;;;;;;5042980;28;19925;-62
2022/04/02 08:02:55;;;;;;;;;;;1.60;99.90;;;;;;5043185;28;19960;-65
2022/04/02 08:05:23;;;;;;;;;;;1.70;99.90;;;;;;5050752;28;19929;-63
2022/04/02 08:07:54;;;;;;;;;;;1.70;99.90;;;;;;5049285;28;19928;-63
2022/04/02 08:10:24;;;;;;;;;;;1.70;99.90;;;;;;5051084;28;19928;-63
2022/04/02 08:12:54;;;;;;;;;;;1.70;99.90;;;;;;5049291;28;19929;-63
2022/04/02 08:15:24;;;;;;;;;;;1.80;99.90;;;;;;5049728;28;20264;-64
2022/04/02 08:17:53;;;;;;;;;;;1.90;99.90;;;;;;5050702;28;19936;-64
2022/04/02 08:20:21;;;;;;;;;;;1.90;99.90;;;;;;5051160;28;20014;-64
2022/04/02 08:22:49;;;;;;;;;;;1.90;99.90;;;;;;5049748;28;19932;-63
2022/04/02 08:25:17;;;;;;;;;;;1.80;99.90;;;;;;5052639;28;19929;-64
2022/04/02 08:27:51;;;;;;;;;;;1.90;99.90;;;;;;5051040;28;20694;-64
2022/04/02 08:30:25;;;;;;;;;;;1.90;99.90;;;;;;5051941;28;19936;-65
2022/04/02 08:33:18;;;;;;;;;;;2.00;99.90;;;;;;5049877;28;19988;-63
2022/04/02 08:35:51;;;;;;;;;;;2.00;99.90;;;;;;5050694;28;20462;-63
2022/04/02 08:38:24;;;;;;;;;;;2.10;99.90;;;;;;5050291;28;19938;-64
2022/04/02 08:41:13;;;;;;;;;;;2.10;99.90;;;;;;5051601;28;20517;-64
2022/04/02 08:44:01;;;;;;;;;;;2.20;99.90;;;;;;5050556;28;20036;-63
2022/04/02 08:46:34;;;;;;;;;;;2.30;99.90;;;;;;5049965;28;19933;-63
2022/04/02 08:49:22;;;;;;;;;;;2.40;99.90;;;;;;5050431;28;20699;-63
2022/04/02 08:52:00;;;;;;;;;;;2.40;99.90;;;;;;5051178;28;19993;-64
2022/04/02 08:54:29;;;;;;;;;;;2.50;99.90;;;;;;5050808;28;19940;-63
2022/04/02 08:56:59;;;;;;;;;;;2.70;99.90;;;;;;5054047;28;20233;-63
2022/04/02 08:59:34;;;;;;;;;;;2.60;99.90;;;;;;5052642;28;20086;-63
2022/04/02 09:02:10;;;;;;;;;;;2.80;99.90;;;;;;5053326;28;19932;-63
2022/04/02 09:05:01;;;;;;;;;;;2.80;99.90;;;;;;5055473;28;20548;-65
2022/04/02 09:07:47;;;;;;;;;;;2.90;99.90;;;;;;5053467;28;19970;-64
2022/04/02 09:10:34;;;;;;;;;;;2.90;99.90;;;;;;5054316;28;20046;-63
2022/04/02 09:13:32;;;;;;;;;;;2.90;99.90;;;;;;5053201;28;20619;-63
2022/04/02 09:16:01;;;;;;;;;;;3.00;99.90;;;;;;4990764;28;20033;-64
2022/04/02 09:18:36;;;;;;;;;;;3.10;99.90;;;;;;5039336;28;21308;-63
2022/04/02 09:21:13;;;;;;;;;;;3.00;99.90;;;;;;5053573;28;19932;-63
2022/04/02 09:23:43;;;;;;;;;;;3.20;99.90;;;;;;5053052;28;20051;-63
2022/04/02 09:26:29;;;;;;;;;;;3.20;99.90;;;;;;5054378;28;19932;-63
2022/04/02 09:29:11;;;;;;;;;;;3.20;99.90;;;;;;5052288;28;20472;-64
2022/04/02 09:32:09;;;;;;;;;;;3.20;99.90;;;;;;5054774;28;21366;-64
2022/04/02 09:35:04;;;;;;;;;;;3.10;99.90;;;;;;5054081;28;19976;-63
2022/04/02 09:37:47;;;;;;;;;;;3.30;99.90;;;;;;5052695;28;21244;-63
2022/04/02 09:40:18;;;;;;;;;;;3.20;99.90;;;;;;5054310;28;20105;-64
2022/04/02 09:42:47;;;;;;;;;;;3.30;99.90;;;;;;5053183;28;20005;-63
2022/04/02 09:45:16;;;;;;;;;;;3.30;99.90;;;;;;5054350;28;20027;-65
2022/04/02 09:48:06;;;;;;;;;;;3.30;99.90;;;;;;5053445;28;20515;-64
2022/04/02 09:50:34;;;;;;;;;;;3.40;99.90;;;;;;5050900;28;19934;-64
2022/04/02 09:53:13;;;;;;;;;;;3.40;99.90;;;;;;5051003;28;19939;-62
2022/04/02 09:55:44;;;;;;;;;;;3.40;99.90;;;;;;5049320;28;19933;-63
2022/04/02 09:58:38;;;;;;;;;;;3.60;99.90;;;;;;5048528;28;20308;-63
2022/04/02 10:01:06;;;;;;;;;;;3.50;99.90;;;;;;5052399;28;20487;-62
2022/04/02 10:03:39;;;;;;;;;;;3.70;99.90;;;;;;5052123;28;19932;-61
2022/04/02 10:06:19;;;;;;;;;;;3.70;99.90;;;;;;5052759;28;19932;-62
2022/04/02 10:08:55;;;;;;;;;;;3.70;99.90;;;;;;5051194;28;19974;-62
2022/04/02 10:11:27;;;;;;;;;;;3.70;99.90;;;;;;5046519;28;19961;-61
2022/04/02 10:13:57;;;;;;;;;;;3.60;99.90;;;;;;5047640;28;20684;-61
2022/04/02 10:16:26;;;;;;;;;;;3.60;99.90;;;;;;5053152;28;20470;-62
2022/04/02 10:18:56;;;;;;;;;;;3.70;99.90;;;;;;5050946;28;19929;-61
2022/04/02 10:21:24;;;;;;;;;;;3.60;99.90;;;;;;5052442;28;19960;-63
2022/04/02 10:23:54;;;;;;;;;;;3.50;99.90;;;;;;5050823;28;20549;-62
2022/04/02 10:26:22;;;;;;;;;;;3.50;99.90;;;;;;5047652;28;19932;-61
2022/04/02 10:28:52;;;;;;;;;;;3.50;99.90;;;;;;5046789;28;20042;-62
2022/04/02 10:31:30;;;;;;;;;;;3.60;99.90;;;;;;5050490;28;20023;-63
2022/04/02 10:34:00;;;;;;;;;;;3.60;99.90;;;;;;5050216;28;19932;-62
2022/04/02 10:36:28;;;;;;;;;;;3.80;99.90;;;;;;5051331;28;19932;-62
2022/04/02 10:38:57;;;;;;;;;;;3.90;99.90;;;;;;5050360;28;20085;-62
2022/04/02 10:41:29;;;;;;;;;;;4.00;99.90;;;;;;5051869;28;20835;-63
2022/04/02 10:43:59;;;;;;;;;;;4.10;99.90;;;;;;5049839;28;20003;-62
2022/04/02 10:46:27;;;;;;;;;;;4.10;99.90;;;;;;5053136;28;20043;-62
2022/04/02 10:48:57;;;;;;;;;;;4.20;99.90;;;;;;5051305;28;19939;-62
2022/04/02 10:51:26;;;;;;;;;;;4.20;99.90;;;;;;5051281;28;19932;-64
2022/04/02 10:53:59;;;;;;;;;;;4.20;99.90;;;;;;5050131;28;19933;-62
2022/04/02 10:56:29;;;;;;;;;;;4.10;99.90;;;;;;5034119;28;20035;-64
2022/04/02 10:58:57;;;;;;;;;;;4.30;99.90;;;;;;5050458;28;20459;-63
2022/04/02 11:01:25;;;;;;;;;;;4.50;99.90;;;;;;5051910;28;19986;-63
2022/04/02 11:03:54;;;;;;;;;;;4.30;99.90;;;;;;5049754;28;19933;-63
2022/04/02 11:06:41;;;;;;;;;;;4.30;99.90;;;;;;5053273;28;19951;-63
2022/04/02 11:09:24;;;;;;;;;;;4.20;99.90;;;;;;5051535;28;20031;-63
2022/04/02 11:11:53;;;;;;;;;;;4.10;99.90;;;;;;5052175;28;20035;-64
2022/04/02 11:14:21;;;;;;;;;;;4.20;99.90;;;;;;5051549;28;20037;-63
2022/04/02 11:16:49;;;;;;;;;;;4.20;99.90;;;;;;5052509;28;20425;-63
2022/04/02 11:22:04;;;;;;;;;;;4.40;99.90;;;;;;5051473;28;20052;-64
2022/04/02 11:24:35;;;;;;;;;;;4.30;99.90;;;;;;5051236;28;20385;-63
2022/04/02 11:27:05;;;;;;;;;;;4.30;99.90;;;;;;5051350;28;20030;-63
2022/04/02 11:29:34;;;;;;;;;;;4.40;99.90;;;;;;5049390;28;19925;-63
2022/04/02 11:32:02;;;;;;;;;;;4.50;99.90;;;;;;5050593;28;19933;-63
2022/04/02 11:34:33;;;;;;;;;;;4.40;99.90;;;;;;5050995;28;19924;-63
2022/04/02 11:37:03;;;;;;;;;;;4.30;99.90;;;;;;5051151;28;19960;-63
2022/04/02 11:39:33;;;;;;;;;;;4.40;99.90;;;;;;5051557;28;19925;-63
2022/04/02 11:42:02;;;;;;;;;;;4.50;99.90;;;;;;5051524;28;20009;-62
2022/04/02 11:44:37;;;;;;;;;;;4.40;99.90;;;;;;5051561;28;19960;-64
2022/04/02 11:47:06;;;;;;;;;;;4.50;99.90;;;;;;5051947;28;19925;-64
2022/04/02 11:49:36;;;;;;;;;;;4.70;99.90;;;;;;5051594;28;19925;-64
2022/04/02 11:52:05;;;;;;;;;;;4.60;99.90;;;;;;5050869;28;19960;-63
2022/04/02 11:54:38;;;;;;;;;;;4.60;99.90;;;;;;5051190;28;20748;-64
2022/04/02 11:57:07;;;;;;;;;;;4.70;99.90;;;;;;5051842;28;19968;-63
2022/04/02 11:59:35;;;;;;;;;;;4.90;99.90;;;;;;5051551;28;19975;-64
2022/04/02 12:02:05;;;;;;;;;;;5.00;99.90;;;;;;5050729;28;20032;-63
2022/04/02 12:04:34;;;;;;;;;;;4.90;99.90;;;;;;5051538;28;20473;-64
2022/04/02 12:07:06;;;;;;;;;;;4.70;99.90;;;;;;5051659;28;19979;-64
2022/04/02 12:09:34;;;;;;;;;;;4.60;99.90;;;;;;5051679;28;19924;-64
2022/04/02 12:12:03;;;;;;;;;;;4.70;99.90;;;;;;5051006;28;19979;-63
2022/04/02 12:14:32;;;;;;;;;;;4.80;99.90;;;;;;5051560;28;19970;-64
2022/04/02 12:17:01;;;;;;;;;;;5.00;99.90;;;;;;5051226;28;20311;-64
2022/04/02 12:19:40;;;;;;;;;;;5.10;99.90;;;;;;5051207;28;19931;-63
2022/04/02 12:22:18;;;;;;;;;;;5.00;99.90;;;;;;5050911;28;19964;-63
2022/04/02 12:24:49;;;;;;;;;;;5.00;99.90;;;;;;5045178;28;20352;-63
2022/04/02 12:27:17;;;;;;;;;;;5.10;99.90;;;;;;5045251;28;20291;-63
2022/04/02 12:29:46;;;;;;;;;;;4.90;99.90;;;;;;5052812;28;19968;-64
2022/04/02 12:32:14;;;;;;;;;;;4.80;99.90;;;;;;5054618;28;20362;-63
2022/04/02 12:34:44;;;;;;;;;;;4.70;99.90;;;;;;5055473;28;19928;-64
2022/04/02 12:37:12;;;;;;;;;;;4.60;99.90;;;;;;5055284;28;19964;-63
2022/04/02 12:39:40;;;;;;;;;;;4.40;99.90;;;;;;5054954;28;20325;-64
2022/04/02 12:42:08;;;;;;;;;;;4.50;99.90;;;;;;5054239;28;20447;-63
2022/04/02 12:44:35;;;;;;;;;;;4.60;99.90;;;;;;5054972;28;20027;-64
2022/04/02 12:47:08;;;;;;;;;;;4.60;99.90;;;;;;5055061;28;19925;-63
2022/04/02 12:49:37;;;;;;;;;;;4.60;99.90;;;;;;5054858;28;20015;-64
2022/04/02 12:52:13;;;;;;;;;;;4.60;99.90;;;;;;5054707;28;19978;-63
2022/04/02 12:54:47;;;;;;;;;;;4.70;99.90;;;;;;5054768;28;19929;-64
2022/04/02 12:57:16;;;;;;;;;;;4.90;99.90;;;;;;5054951;28;20317;-64
2022/04/02 12:59:44;;;;;;;;;;;4.80;99.90;;;;;;5054688;28;20348;-65
2022/04/02 13:02:14;;;;;;;;;;;4.90;99.90;;;;;;5075416;22;19977;-61
2022/04/02 13:04:47;;;;;;;;;;;4.80;99.90;;;;;;5034388;28;19987;-62
2022/04/02 13:07:20;;;;;;;;;;;4.80;99.90;;;;;;5034926;28;19925;-62
2022/04/02 13:09:48;;;;;;;;;;;4.90;99.90;;;;;;5034595;28;19975;-63
2022/04/02 13:12:21;;;;;;;;;;;4.90;99.90;;;;;;5033871;28;20375;-62
2022/04/02 13:14:51;;;;;;;;;;;4.90;99.90;;;;;;5034775;28;20024;-61
2022/04/02 13:17:19;;;;;;;;;;;4.90;99.90;;;;;;5034801;28;19975;-62
2022/04/02 13:22:46;;;;;;;;;;;4.70;99.90;;;;;;5030026;28;19929;-61
2022/04/02 13:25:14;;;;;;;;;;;4.70;99.90;;;;;;5034441;28;19983;-62
2022/04/02 13:27:58;;;;;;;;;;;4.60;99.90;;;;;;5034526;28;19986;-61
2022/04/02 13:30:32;;;;;;;;;;;4.60;99.90;;;;;;5034063;28;20012;-62
2022/04/02 13:33:17;;;;;;;;;;;4.60;99.90;;;;;;5027567;28;19926;-62
2022/04/02 13:35:47;;;;;;;;;;;4.60;99.90;;;;;;5029286;28;19925;-61
2022/04/02 13:38:31;;;;;;;;;;;4.70;99.90;;;;;;5034430;28;20349;-62
2022/04/02 13:41:01;;;;;;;;;;;4.80;99.90;;;;;;5033378;28;19925;-62
2022/04/02 13:43:30;;;;;;;;;;;4.90;99.90;;;;;;5033682;28;20318;-62
2022/04/02 13:45:59;;;;;;;;;;;4.90;99.90;;;;;;5033738;28;19975;-62
2022/04/02 13:48:27;;;;;;;;;;;4.90;99.90;;;;;;5034201;28;19936;-62
2022/04/02 13:51:01;;;;;;;;;;;4.90;99.90;;;;;;5033902;28;19975;-62
2022/04/02 13:53:34;;;;;;;;;;;4.90;99.90;;;;;;5033150;28;19932;-62
2022/04/02 13:56:09;;;;;;;;;;;4.90;99.90;;;;;;5033987;28;19960;-62
2022/04/02 13:58:39;;;;;;;;;;;4.90;99.90;;;;;;5033963;28;20405;-61
2022/04/02 14:01:08;;;;;;;;;;;4.80;99.90;;;;;;5023314;28;19980;-62
2022/04/02 14:03:38;;;;;;;;;;;4.80;99.90;;;;;;5026280;28;19982;-62
2022/04/02 14:06:07;;;;;;;;;;;4.90;99.90;;;;;;5027423;28;20414;-61
2022/04/02 14:08:37;;;;;;;;;;;4.90;99.90;;;;;;5027213;28;19971;-62
2022/04/02 14:11:14;;;;;;;;;;;5.00;99.90;;;;;;5027200;28;19926;-61
2022/04/02 14:13:53;;;;;;;;;;;5.10;99.90;;;;;;5032771;28;19931;-62
2022/04/02 14:16:23;;;;;;;;;;;5.20;99.90;;;;;;5033763;28;19929;-62
2022/04/02 14:18:52;;;;;;;;;;;5.30;99.90;;;;;;5033673;28;20310;-62
2022/04/02 14:21:20;;;;;;;;;;;5.30;99.90;;;;;;5033176;28;20346;-62
2022/04/02 14:23:54;;;;;;;;;;;5.30;99.90;;;;;;5032509;28;19929;-62
2022/04/02 14:26:35;;;;;;;;;;;5.20;99.90;;;;;;5033537;28;19932;-62
2022/04/02 14:29:16;;;;;;;;;;;5.30;99.90;;;;;;5033331;28;19975;-62
2022/04/02 14:31:57;;;;;;;;;;;5.30;99.90;;;;;;5030858;28;20015;-61
2022/04/02 14:34:34;;;;;;;;;;;5.40;99.90;;;;;;5033044;28;19999;-62
2022/04/02 14:37:20;;;;;;;;;;;5.40;99.90;;;;;;5033499;28;19936;-62
2022/04/02 14:40:03;;;;;;;;;;;5.30;99.90;;;;;;5032907;28;19964;-62
2022/04/02 14:42:47;;;;;;;;;;;5.20;99.90;;;;;;5032418;28;19952;-62
2022/04/02 14:45:22;;;;;;;;;;;5.20;99.90;;;;;;5033033;28;19925;-62
2022/04/02 14:48:03;;;;;;;;;;;5.00;99.90;;;;;;5033117;28;19925;-62
2022/04/02 14:50:51;;;;;;;;;;;4.80;99.90;;;;;;5032701;28;20008;-62
2022/04/02 14:53:48;;;;;;;;;;;4.80;99.90;;;;;;5030978;28;19941;-62
2022/04/02 14:56:37;;;;;;;;;;;4.70;99.90;;;;;;5032960;28;19925;-62
2022/04/02 14:59:23;;;;;;;;;;;4.80;99.90;;;;;;5033057;28;19987;-62
2022/04/02 15:02:11;;;;;;;;;;;4.80;99.90;;;;;;5024913;28;20016;-62